Time;durP1;ratioP1;P1;durP2;ratioP2;P2;SDS_P1;SDS_P2;PMS_P1;PMS_P2;Temp;Humidity;BMP_temperature;BMP_pressure;BME280_temperature;BME280_humidity;BME280_pressure;Samples;Min_cycle;Max_cycle;Signal;HPM_P1;HPM_P2
2021/03/24 00:01:24;;;;;;;39.40;20.45;;;0.00;99.90;;;;;;5014700;28;20026;-79
2021/03/24 00:03:51;;;;;;;41.75;21.08;;;-0.10;99.90;;;;;;5015137;28;20033;-80
2021/03/24 00:06:18;;;;;;;44.10;20.08;;;0.00;99.90;;;;;;5014594;28;20042;-79
2021/03/24 00:08:46;;;;;;;42.95;21.67;;;0.10;99.90;;;;;;5014490;28;20476;-77
2021/03/24 00:11:13;;;;;;;41.88;21.13;;;-0.10;99.90;;;;;;5033186;28;20030;-78
2021/03/24 00:13:40;;;;;;;49.83;24.75;;;0.00;99.90;;;;;;5014185;28;20042;-79
2021/03/24 00:16:07;;;;;;;42.05;19.70;;;0.10;99.90;;;;;;5014738;28;20042;-78
2021/03/24 00:18:34;;;;;;;42.75;23.48;;;0.00;99.90;;;;;;5014967;28;20035;-79
2021/03/24 00:21:00;;;;;;;43.40;21.98;;;-0.20;99.90;;;;;;5014684;28;20037;-79
2021/03/24 00:23:26;;;;;;;47.13;22.33;;;-0.30;99.90;;;;;;5013998;28;20049;-78
2021/03/24 00:25:53;;;;;;;41.28;21.80;;;-0.40;99.90;;;;;;5014333;28;20380;-79
2021/03/24 00:28:20;;;;;;;45.97;22.35;;;-0.40;99.90;;;;;;5014128;28;20414;-79
2021/03/24 00:30:47;;;;;;;49.50;22.92;;;-0.40;99.90;;;;;;5014524;28;20475;-79
2021/03/24 00:33:17;;;;;;;47.92;23.77;;;-0.40;99.90;;;;;;5013620;28;20037;-78
2021/03/24 00:35:43;;;;;;;48.72;23.83;;;-0.40;99.90;;;;;;5014265;28;20482;-79
2021/03/24 00:38:11;;;;;;;54.10;24.05;;;-0.40;99.90;;;;;;5028936;28;20048;-77
2021/03/24 00:40:46;;;;;;;52.13;24.50;;;-0.40;99.90;;;;;;5014346;28;20052;-79
2021/03/24 00:43:12;;;;;;;53.70;25.20;;;-0.40;99.90;;;;;;5013869;28;20030;-78
2021/03/24 00:45:40;;;;;;;51.17;23.95;;;-0.40;99.90;;;;;;5013851;28;20040;-77
2021/03/24 00:48:09;;;;;;;50.80;24.35;;;-0.50;99.90;;;;;;5014169;28;20041;-78
2021/03/24 00:50:35;;;;;;;48.33;23.20;;;-0.70;99.90;;;;;;5014301;28;20046;-79
2021/03/24 00:53:03;;;;;;;46.97;22.13;;;-0.70;99.90;;;;;;5012197;28;20038;-79
2021/03/24 00:55:29;;;;;;;45.08;21.67;;;-0.80;99.90;;;;;;5013655;28;20269;-79
2021/03/24 00:57:55;;;;;;;46.85;22.67;;;-0.80;99.90;;;;;;5013817;28;20064;-79
2021/03/24 01:00:29;;;;;;;51.05;23.88;;;-0.80;99.90;;;;;;5013629;28;20048;-79
2021/03/24 01:02:55;;;;;;;47.97;22.33;;;-0.80;99.90;;;;;;5014009;28;20478;-79
2021/03/24 01:05:23;;;;;;;52.75;26.08;;;-0.80;99.90;;;;;;5012844;28;20471;-78
2021/03/24 01:07:50;;;;;;;57.17;24.75;;;-0.80;99.90;;;;;;5028685;28;20045;-79
2021/03/24 01:10:28;;;;;;;50.20;23.45;;;-0.80;99.90;;;;;;5012722;28;20392;-79
2021/03/24 01:12:55;;;;;;;62.63;25.85;;;-0.70;99.90;;;;;;5013515;28;20042;-79
2021/03/24 01:15:22;;;;;;;55.35;26.55;;;-0.50;99.90;;;;;;5013143;28;20034;-79
2021/03/24 01:17:48;;;;;;;53.83;25.58;;;-0.40;99.90;;;;;;5013009;28;20415;-78
2021/03/24 01:20:16;;;;;;;48.00;23.98;;;-0.50;99.90;;;;;;5012814;28;20030;-77
2021/03/24 01:22:42;;;;;;;45.63;23.17;;;-0.60;99.90;;;;;;5013483;28;20030;-79
2021/03/24 01:25:09;;;;;;;48.05;22.63;;;-0.70;99.90;;;;;;5013153;28;20514;-79
2021/03/24 01:27:36;;;;;;;57.17;26.13;;;-0.70;99.90;;;;;;5013476;28;20037;-79
2021/03/24 01:30:04;;;;;;;51.60;26.35;;;-0.60;99.90;;;;;;5013396;28;20022;-79
2021/03/24 01:32:31;;;;;;;60.33;26.65;;;-0.50;99.90;;;;;;5013946;28;20041;-79
2021/03/24 01:34:58;;;;;;;56.30;25.25;;;-0.50;99.90;;;;;;5013158;28;20033;-79
2021/03/24 01:37:24;;;;;;;54.38;24.83;;;-0.50;99.90;;;;;;5012734;28;20042;-79
2021/03/24 01:39:50;;;;;;;51.63;23.83;;;-0.50;99.90;;;;;;5013116;28;20030;-79
2021/03/24 01:42:17;;;;;;;48.22;22.08;;;-0.40;99.90;;;;;;5012803;28;20410;-79
2021/03/24 01:45:01;;;;;;;50.67;24.00;;;-0.60;99.90;;;;;;5012880;28;20045;-78
2021/03/24 01:47:29;;;;;;;46.50;21.02;;;-0.70;99.90;;;;;;5012973;28;20490;-79
2021/03/24 01:49:57;;;;;;;47.17;23.65;;;-0.80;99.90;;;;;;5012148;28;20068;-79
2021/03/24 01:52:24;;;;;;;47.08;23.75;;;-0.80;99.90;;;;;;5012594;28;20030;-79
2021/03/24 01:54:51;;;;;;;51.55;23.05;;;-0.90;99.90;;;;;;5012523;28;20503;-77
2021/03/24 01:57:24;;;;;;;54.00;23.88;;;-0.90;99.90;;;;;;5012494;28;20482;-79
2021/03/24 01:59:54;;;;;;;51.30;23.38;;;-0.90;99.90;;;;;;5013007;28;20038;-78
2021/03/24 02:02:25;;;;;;;51.47;23.33;;;-1.10;99.90;;;;;;5012640;28;20049;-79
2021/03/24 02:04:54;;;;;;;58.85;24.02;;;-1.20;99.90;;;;;;5012949;28;20049;-79
2021/03/24 02:07:32;;;;;;;54.58;25.05;;;-1.10;99.90;;;;;;5012374;28;20030;-78
2021/03/24 02:10:08;;;;;;;49.08;23.80;;;-1.10;99.90;;;;;;5013077;28;20033;-78
2021/03/24 02:12:50;;;;;;;57.25;23.58;;;-1.10;99.90;;;;;;5031477;28;20384;-77
2021/03/24 02:15:29;;;;;;;56.03;22.92;;;-1.10;99.90;;;;;;5012504;28;20045;-78
2021/03/24 02:17:57;;;;;;;46.05;22.08;;;-1.20;99.90;;;;;;5012769;28;20467;-79
2021/03/24 02:20:33;;;;;;;49.65;22.95;;;-1.20;99.90;;;;;;5012019;28;20041;-78
2021/03/24 02:23:07;;;;;;;44.67;22.55;;;-1.30;99.90;;;;;;5012241;28;20057;-79
2021/03/24 02:25:46;;;;;;;50.88;25.67;;;-1.30;99.90;;;;;;5012289;28;20033;-78
2021/03/24 02:28:14;;;;;;;51.53;24.05;;;-1.20;99.90;;;;;;5012119;28;20105;-79
2021/03/24 02:30:44;;;;;;;46.88;22.95;;;-1.20;99.90;;;;;;5012455;28;20029;-78
2021/03/24 02:33:12;;;;;;;44.92;23.63;;;-1.20;99.90;;;;;;5011002;28;20049;-77
2021/03/24 02:35:43;;;;;;;47.65;23.77;;;-1.30;99.90;;;;;;5011889;28;20038;-78
2021/03/24 02:38:11;;;;;;;50.78;22.45;;;-1.40;99.90;;;;;;5012101;28;20037;-78
2021/03/24 02:40:39;;;;;;;43.75;22.73;;;-1.40;99.90;;;;;;5012320;28;20030;-78
2021/03/24 02:43:07;;;;;;;49.28;22.58;;;-1.50;99.90;;;;;;5012643;28;20037;-78
2021/03/24 02:45:37;;;;;;;57.03;24.98;;;-1.50;99.90;;;;;;5012257;28;20050;-77
2021/03/24 02:48:08;;;;;;;58.67;25.27;;;-1.40;99.90;;;;;;5012268;28;20033;-78
2021/03/24 02:50:38;;;;;;;60.80;27.42;;;-1.40;99.90;;;;;;5012406;28;20049;-78
2021/03/24 02:53:05;;;;;;;67.63;26.42;;;-1.40;99.90;;;;;;5012043;28;20030;-77
2021/03/24 02:55:36;;;;;;;57.00;24.55;;;-1.40;99.90;;;;;;5012074;28;20054;-78
2021/03/24 02:58:02;;;;;;;47.95;23.23;;;-1.40;99.90;;;;;;5012347;28;21685;-79
2021/03/24 03:00:29;;;;;;;56.03;24.00;;;-1.40;99.90;;;;;;5011920;28;20033;-79
2021/03/24 03:03:04;;;;;;;60.50;25.92;;;-1.40;99.90;;;;;;5012010;28;20102;-78
2021/03/24 03:05:35;;;;;;;57.05;23.83;;;-1.30;99.90;;;;;;5011826;28;20033;-78
2021/03/24 03:08:12;;;;;;;58.33;25.45;;;-1.50;99.90;;;;;;5012163;28;20025;-78
2021/03/24 03:10:54;;;;;;;49.38;23.33;;;-1.50;99.90;;;;;;5011327;28;20034;-78
2021/03/24 03:13:31;;;;;;;57.10;24.17;;;-1.50;99.90;;;;;;5011989;28;20467;-77
2021/03/24 03:16:03;;;;;;;51.03;24.75;;;-1.50;99.90;;;;;;5026753;28;20054;-79
2021/03/24 03:18:37;;;;;;;54.63;24.67;;;-1.30;99.90;;;;;;5011559;28;20280;-78
2021/03/24 03:21:27;;;;;;;50.95;23.40;;;-1.40;99.90;;;;;;5012128;28;20464;-80
2021/03/24 03:23:57;;;;;;;60.88;25.70;;;-1.40;99.90;;;;;;5011831;28;20022;-79
2021/03/24 03:26:24;;;;;;;55.15;24.85;;;-1.50;99.90;;;;;;5011830;28;20050;-79
2021/03/24 03:29:01;;;;;;;56.00;24.38;;;-1.50;99.90;;;;;;5011999;28;20042;-79
2021/03/24 03:31:33;;;;;;;47.15;22.95;;;-1.60;99.90;;;;;;5011619;28;20387;-79
2021/03/24 03:33:59;;;;;;;50.42;23.90;;;-1.70;99.90;;;;;;5012191;28;20038;-79
2021/03/24 03:36:28;;;;;;;43.45;22.70;;;-1.70;99.90;;;;;;5015119;28;20414;-79
2021/03/24 03:38:58;;;;;;;50.92;22.60;;;-1.70;99.90;;;;;;5013967;28;20053;-79
2021/03/24 03:41:26;;;;;;;49.45;23.75;;;-1.70;99.90;;;;;;5015184;28;20034;-80
2021/03/24 03:43:55;;;;;;;58.35;23.25;;;-1.80;99.90;;;;;;5015447;28;20034;-79
2021/03/24 03:46:26;;;;;;;52.10;24.77;;;-1.70;99.90;;;;;;5015223;28;20045;-79
2021/03/24 03:48:52;;;;;;;;;;;-1.70;99.90;;;;;;5015925;28;20037;-78
2021/03/24 03:51:39;;;;;;;49.53;21.55;;;-1.70;99.90;;;;;;5014825;28;19910;-78
2021/03/24 03:54:08;;;;;;;56.30;23.33;;;-1.80;99.90;;;;;;5014768;28;20408;-79
2021/03/24 03:57:06;;;;;;;55.33;24.98;;;-1.80;99.90;;;;;;5014628;28;20161;-78
2021/03/24 03:59:43;;;;;;;56.45;26.42;;;-1.80;99.90;;;;;;5014872;28;20038;-78
2021/03/24 04:02:15;;;;;;;57.85;25.70;;;-1.70;99.90;;;;;;5015034;28;20659;-79
2021/03/24 04:04:50;;;;;;;61.58;25.50;;;-1.70;99.90;;;;;;5015204;28;20471;-79
2021/03/24 04:07:24;;;;;;;69.60;32.58;;;-1.70;99.90;;;;;;5015003;28;20049;-78
2021/03/24 04:09:53;;;;;;;65.88;30.67;;;-1.70;99.90;;;;;;5015414;28;20053;-79
2021/03/24 04:12:22;;;;;;;68.38;30.27;;;-1.70;99.90;;;;;;5015596;28;20030;-79
2021/03/24 04:14:51;;;;;;;65.80;29.13;;;-1.80;99.90;;;;;;5015473;28;20487;-79
2021/03/24 04:17:23;;;;;;;58.90;29.75;;;-1.90;99.90;;;;;;5014345;28;20053;-78
2021/03/24 04:19:53;;;;;;;59.83;28.70;;;-1.90;99.90;;;;;;5014750;28;20042;-78
2021/03/24 04:22:23;;;;;;;56.70;26.90;;;-2.00;99.90;;;;;;5014892;28;20046;-78
2021/03/24 04:24:54;;;;;;;72.95;29.80;;;-1.90;99.90;;;;;;5014573;28;20049;-78
2021/03/24 04:27:24;;;;;;;61.20;28.88;;;-1.80;99.90;;;;;;5013928;28;20498;-78
2021/03/24 04:29:57;;;;;;;60.72;27.77;;;-1.80;99.90;;;;;;5014266;28;20030;-79
2021/03/24 04:32:24;;;;;;;57.38;26.13;;;-1.90;99.90;;;;;;5014174;28;20372;-79
2021/03/24 04:34:50;;;;;;;60.83;27.02;;;-1.90;99.90;;;;;;5014400;28;20029;-78
2021/03/24 04:37:40;;;;;;;64.25;27.45;;;-2.00;99.90;;;;;;5014251;28;20057;-79
2021/03/24 04:40:06;;;;;;;58.17;26.75;;;-2.00;99.90;;;;;;5014393;28;20034;-79
2021/03/24 04:42:44;;;;;;;64.10;27.52;;;-1.90;99.90;;;;;;5013984;28;20053;-79
2021/03/24 04:45:22;;;;;;;64.20;28.63;;;-2.00;99.90;;;;;;5029229;28;20038;-79
2021/03/24 04:47:53;;;;;;;65.97;30.58;;;-2.00;99.90;;;;;;5014451;28;20041;-79
2021/03/24 04:50:25;;;;;;;66.75;30.00;;;-2.00;99.90;;;;;;5014106;28;20041;-78
2021/03/24 04:52:51;;;;;;;;;;;-1.90;99.90;;;;;;5034677;28;20029;-79
2021/03/24 04:55:24;;;;;;;61.83;25.92;;;-1.90;99.90;;;;;;5015010;28;19925;-80
2021/03/24 04:57:58;;;;;;;66.15;30.10;;;-2.00;99.90;;;;;;5014099;28;20491;-80
2021/03/24 05:00:39;;;;;;;77.30;30.27;;;-1.90;99.90;;;;;;5013785;28;20041;-80
2021/03/24 05:03:12;;;;;;;64.45;29.40;;;-1.90;99.90;;;;;;5013870;28;20037;-79
2021/03/24 05:05:47;;;;;;;71.07;30.73;;;-2.00;99.90;;;;;;5013786;28;20030;-80
2021/03/24 05:08:35;;;;;;;67.68;30.67;;;-2.00;99.90;;;;;;5013510;28;20037;-78
2021/03/24 05:11:06;;;;;;;76.63;32.30;;;-2.00;99.90;;;;;;5014243;28;20064;-79
2021/03/24 05:13:40;;;;;;;53.75;26.73;;;-2.00;99.90;;;;;;5013164;28;20253;-80
2021/03/24 05:16:16;;;;;;;61.58;28.65;;;-2.10;99.90;;;;;;5013635;28;20498;-80
2021/03/24 05:18:55;;;;;;;59.50;28.58;;;-2.00;99.90;;;;;;5013253;28;20034;-80
2021/03/24 05:21:34;;;;;;;64.32;27.88;;;-2.00;99.90;;;;;;5012884;28;20368;-77
2021/03/24 05:24:01;;;;;;;62.35;26.75;;;-1.90;99.90;;;;;;5018639;28;20033;-79
2021/03/24 05:26:33;;;;;;;56.55;27.15;;;-2.00;99.90;;;;;;5012835;28;20049;-79
2021/03/24 05:29:11;;;;;;;70.55;27.33;;;-2.00;99.90;;;;;;5016174;28;20037;-79
2021/03/24 05:31:42;;;;;;;60.78;26.98;;;-2.00;99.90;;;;;;5022906;28;20037;-80
2021/03/24 05:34:33;;;;;;;60.33;27.17;;;-2.00;99.90;;;;;;5013285;28;20059;-79
2021/03/24 05:37:01;;;;;;;48.95;26.17;;;-1.80;99.90;;;;;;5013450;28;20034;-80
2021/03/24 05:39:33;;;;;;;60.97;26.42;;;-1.80;99.90;;;;;;5012691;28;20131;-79
2021/03/24 05:42:21;;;;;;;64.35;26.65;;;-1.90;99.90;;;;;;5013754;28;20480;-79
2021/03/24 05:45:07;;;;;;;52.03;24.48;;;-1.90;99.90;;;;;;5013690;28;20391;-79
2021/03/24 05:47:58;;;;;;;62.90;28.60;;;-1.80;99.90;;;;;;5012911;28;20048;-79
2021/03/24 05:50:36;;;;;;;53.05;24.38;;;-1.70;99.90;;;;;;5016914;28;20037;-80
2021/03/24 05:53:33;;;;;;;55.15;24.33;;;-1.70;99.90;;;;;;5012924;28;20053;-79
2021/03/24 05:56:31;;;;;;;59.80;26.52;;;-1.70;99.90;;;;;;5022980;28;20046;-79
2021/03/24 05:59:17;;;;;;;45.45;23.77;;;-1.70;99.90;;;;;;5013310;28;20038;-79
2021/03/24 06:02:09;;;;;;;59.72;24.98;;;-1.60;99.90;;;;;;5013083;28;20037;-79
2021/03/24 06:04:35;;;;;;;53.65;25.25;;;-1.40;99.90;;;;;;5012639;28;20057;-79
2021/03/24 06:07:32;;;;;;;40.05;21.98;;;-1.10;99.90;;;;;;5019976;28;20041;-78
2021/03/24 06:10:01;;;;;;;39.17;21.00;;;-0.60;99.90;;;;;;5024383;28;20046;-78
2021/03/24 06:12:58;;;;;;;35.95;20.83;;;0.00;99.90;;;;;;5024305;28;20041;-78
2021/03/24 06:15:55;;;;;;;33.05;20.08;;;1.50;99.90;;;;;;5012449;28;20030;-78
2021/03/24 06:18:59;;;;;;;31.85;19.65;;;2.70;99.90;;;;;;5012362;28;20498;-82
2021/03/24 06:21:37;;;;;;;28.73;17.90;;;3.60;96.40;;;;;;5017292;28;20026;-80
2021/03/24 06:24:48;;;;;;;27.13;17.00;;;3.50;93.40;;;;;;5012384;28;20486;-79
2021/03/24 06:27:39;;;;;;;26.23;17.35;;;3.40;92.90;;;;;;5012172;28;20095;-79
2021/03/24 06:30:21;;;;;;;27.10;17.87;;;3.60;92.80;;;;;;5012358;28;20035;-80
2021/03/24 06:33:15;;;;;;;28.23;16.77;;;4.80;87.70;;;;;;5012598;28;20292;-80
2021/03/24 06:36:01;;;;;;;27.40;16.90;;;5.20;84.50;;;;;;5012476;28;20030;-80
2021/03/24 06:38:49;;;;;;;27.13;17.98;;;6.00;80.50;;;;;;5011797;28;20060;-78
2021/03/24 06:41:46;;;;;;;27.13;17.75;;;6.60;77.90;;;;;;5012705;28;20492;-80
2021/03/24 06:44:44;;;;;;;25.42;18.38;;;6.90;75.80;;;;;;5012449;28;20042;-80
2021/03/24 06:47:40;;;;;;;29.60;17.98;;;7.10;74.10;;;;;;5012261;28;20044;-80
2021/03/24 06:50:25;;;;;;;26.92;17.98;;;7.50;72.50;;;;;;5012580;28;20029;-80
2021/03/24 06:53:10;;;;;;;24.25;16.98;;;8.20;71.30;;;;;;5012086;28;20026;-80
2021/03/24 06:55:42;;;;;;;21.63;16.40;;;9.00;69.40;;;;;;5012188;28;20414;-80
2021/03/24 06:58:29;;;;;;;24.65;16.77;;;9.70;66.30;;;;;;5012326;28;20498;-80
2021/03/24 07:01:46;;;;;;;26.05;17.50;;;10.20;64.60;;;;;;5012044;28;20037;-80
2021/03/24 07:04:26;;;;;;;25.92;18.88;;;10.30;63.30;;;;;;4990995;28;20036;-80
2021/03/24 07:07:25;;;;;;;25.73;19.25;;;10.40;63.60;;;;;;4989204;28;20487;-81
2021/03/24 07:10:09;;;;;;;22.92;17.05;;;10.00;63.80;;;;;;4994059;28;20046;-80
2021/03/24 07:12:51;;;;;;;25.00;18.85;;;9.60;65.40;;;;;;5001361;28;20066;-80
2021/03/24 07:15:32;;;;;;;26.45;19.58;;;9.80;65.80;;;;;;5000194;28;20045;-80
2021/03/24 07:18:40;;;;;;;35.83;23.38;;;10.80;63.70;;;;;;5008974;28;20048;-80
2021/03/24 07:21:18;;;;;;;30.70;21.83;;;10.90;63.00;;;;;;5005596;28;20041;-80
2021/03/24 07:23:44;;;;;;;30.20;21.33;;;10.70;62.90;;;;;;5001773;28;20049;-79
2021/03/24 07:26:24;;;;;;;32.83;22.92;;;11.40;61.50;;;;;;5003787;28;20035;-80
2021/03/24 07:29:10;;;;;;;26.83;19.73;;;11.70;61.30;;;;;;4998717;28;20050;-80
2021/03/24 07:31:50;;;;;;;42.00;29.88;;;11.00;61.90;;;;;;5006407;28;20472;-81
2021/03/24 07:34:38;;;;;;;36.03;22.55;;;11.60;60.70;;;;;;4997902;28;20061;-79
2021/03/24 07:37:11;;;;;;;108.32;70.88;;;12.00;60.20;;;;;;5028764;28;20038;-80
2021/03/24 07:40:01;;;;;;;40.75;27.15;;;12.00;59.50;;;;;;5015525;28;20502;-81
2021/03/24 07:42:50;;;;;;;38.08;26.95;;;11.20;61.80;;;;;;5025714;28;20464;-80
2021/03/24 07:45:46;;;;;;;171.32;113.05;;;11.60;60.60;;;;;;5015358;28;20038;-80
2021/03/24 07:48:37;;;;;;;76.65;55.42;;;11.80;59.60;;;;;;5015438;28;20049;-80
2021/03/24 07:51:26;;;;;;;34.17;27.23;;;12.10;59.20;;;;;;5015213;28;20475;-79
2021/03/24 07:54:13;;;;;;;32.10;24.05;;;11.70;60.50;;;;;;5014993;28;20479;-79
2021/03/24 07:57:06;;;;;;;31.90;21.48;;;11.40;59.90;;;;;;5014821;28;20479;-79
2021/03/24 08:00:25;;;;;;;26.38;21.02;;;10.90;60.00;;;;;;5013257;28;20045;-79
2021/03/24 08:02:51;;;;;;;32.78;23.67;;;10.80;61.10;;;;;;5023531;28;20045;-79
2021/03/24 08:05:39;;;;;;;28.05;20.48;;;10.80;61.60;;;;;;5014791;28;20042;-80
2021/03/24 08:08:42;;;;;;;27.75;20.65;;;11.70;59.90;;;;;;5014697;28;20034;-81
2021/03/24 08:11:33;;;;;;;31.23;22.42;;;11.40;60.30;;;;;;5015137;28;20030;-80
2021/03/24 08:14:26;;;;;;;29.10;24.10;;;10.90;60.60;;;;;;5014875;28;20026;-80
2021/03/24 08:17:24;;;;;;;30.38;22.48;;;10.90;61.90;;;;;;5014944;28;20056;-80
2021/03/24 08:19:56;;;;;;;27.80;21.75;;;11.20;60.20;;;;;;5012737;28;20046;-79
2021/03/24 08:22:56;;;;;;;26.67;19.85;;;11.70;59.60;;;;;;5014290;28;20041;-79
2021/03/24 08:25:40;;;;;;;26.33;19.58;;;12.10;58.80;;;;;;5008626;28;20049;-80
2021/03/24 08:28:16;;;;;;;25.10;19.63;;;11.80;58.30;;;;;;5014380;28;20069;-79
2021/03/24 08:31:04;;;;;;;28.02;20.35;;;11.60;58.70;;;;;;5014582;28;20034;-79
2021/03/24 08:33:51;;;;;;;25.40;19.42;;;11.90;59.20;;;;;;5029290;28;20382;-80
2021/03/24 08:36:26;;;;;;;25.15;18.92;;;12.50;58.10;;;;;;5013753;28;20030;-79
2021/03/24 08:39:14;;;;;;;25.08;18.52;;;13.00;56.70;;;;;;5014947;28;20046;-79
2021/03/24 08:42:11;;;;;;;28.58;20.88;;;12.70;56.90;;;;;;5014360;28;20034;-80
2021/03/24 08:45:02;;;;;;;29.08;19.80;;;12.40;57.90;;;;;;5013607;28;20032;-79
2021/03/24 08:47:41;;;;;;;27.50;19.15;;;12.10;57.90;;;;;;5014015;28;20061;-79
2021/03/24 08:50:19;;;;;;;26.98;19.80;;;11.70;59.00;;;;;;5031732;28;20045;-79
2021/03/24 08:52:53;;;;;;;27.38;20.30;;;11.70;59.20;;;;;;5029485;28;20459;-80
2021/03/24 08:55:48;;;;;;;26.10;20.08;;;12.40;58.30;;;;;;5013823;28;20050;-81
2021/03/24 08:58:32;;;;;;;27.10;20.58;;;12.10;58.50;;;;;;5013993;28;20391;-81
2021/03/24 09:01:29;;;;;;;25.27;20.20;;;12.90;56.90;;;;;;5013905;28;20045;-80
2021/03/24 09:04:32;;;;;;;27.73;20.50;;;13.90;54.80;;;;;;5013986;28;20042;-80
2021/03/24 09:07:20;;;;;;;26.40;20.08;;;14.30;54.60;;;;;;5013844;28;20052;-80
2021/03/24 09:10:24;;;;;;;26.70;19.50;;;13.40;53.90;;;;;;5013873;28;20375;-79
2021/03/24 09:13:05;;;;;;;26.95;19.98;;;13.10;55.20;;;;;;5013272;28;20049;-79
2021/03/24 09:15:55;;;;;;;24.48;18.00;;;12.90;56.30;;;;;;5013265;28;20456;-79
2021/03/24 09:18:32;;;;;;;27.85;20.35;;;13.00;56.50;;;;;;5009712;28;20049;-79
2021/03/24 09:21:11;;;;;;;23.27;17.58;;;12.30;57.60;;;;;;5013376;28;20037;-79
2021/03/24 09:23:57;;;;;;;26.17;19.05;;;12.90;56.60;;;;;;5012852;28;20360;-79
2021/03/24 09:27:06;;;;;;;23.17;17.42;;;12.70;56.60;;;;;;5012636;28;20364;-79
2021/03/24 09:29:51;;;;;;;25.25;17.10;;;13.10;56.80;;;;;;5013217;28;20041;-79
2021/03/24 09:32:34;;;;;;;23.60;16.55;;;13.90;55.80;;;;;;5022054;28;20032;-79
2021/03/24 09:35:22;;;;;;;26.42;16.75;;;13.90;54.50;;;;;;5013545;28;20045;-79
2021/03/24 09:38:17;;;;;;;22.33;16.13;;;13.70;55.10;;;;;;5013040;28;20042;-79
2021/03/24 09:40:51;;;;;;;22.95;16.60;;;14.40;55.00;;;;;;5012971;28;20471;-79
2021/03/24 09:43:22;;;;;;;21.13;15.57;;;14.20;53.70;;;;;;5012897;28;20383;-79
2021/03/24 09:46:01;;;;;;;21.88;15.93;;;14.70;53.40;;;;;;5013029;28;20057;-79
2021/03/24 09:48:29;;;;;;;22.88;16.08;;;15.10;53.20;;;;;;5028087;28;20033;-80
2021/03/24 09:51:01;;;;;;;21.90;17.40;;;15.30;52.20;;;;;;5012836;28;20033;-80
2021/03/24 09:53:30;;;;;;;22.38;15.65;;;14.90;52.60;;;;;;5012157;28;20026;-79
2021/03/24 09:55:56;;;;;;;21.08;15.60;;;14.80;53.00;;;;;;5013124;28;20045;-79
2021/03/24 09:58:23;;;;;;;46.00;29.35;;;14.70;52.30;;;;;;5012593;28;20045;-79
2021/03/24 10:01:08;;;;;;;24.92;18.40;;;14.40;54.10;;;;;;5012893;28;20042;-79
2021/03/24 10:03:49;;;;;;;99.15;54.25;;;13.60;54.20;;;;;;5012605;28;20471;-80
2021/03/24 10:06:31;;;;;;;27.08;19.13;;;13.30;54.40;;;;;;5012217;28;20045;-80
2021/03/24 10:09:25;;;;;;;23.30;14.68;;;12.20;57.10;;;;;;5012884;28;20033;-79
2021/03/24 10:12:11;;;;;;;39.80;28.55;;;11.90;57.20;;;;;;5012837;28;20038;-79
2021/03/24 10:15:21;;;;;;;22.23;15.88;;;11.40;58.70;;;;;;5012562;28;20281;-79
2021/03/24 10:17:50;;;;;;;21.80;15.23;;;12.20;58.20;;;;;;5005255;28;20038;-79
2021/03/24 10:20:23;;;;;;;22.55;16.42;;;12.70;56.90;;;;;;5009794;28;20046;-79
2021/03/24 10:22:58;;;;;;;27.27;17.63;;;12.70;56.40;;;;;;5012478;28;20034;-79
2021/03/24 10:25:44;;;;;;;23.33;14.75;;;12.80;56.60;;;;;;5012079;28;20388;-79
2021/03/24 10:28:20;;;;;;;17.63;11.75;;;12.10;56.90;;;;;;5012561;28;20044;-79
2021/03/24 10:31:03;;;;;;;20.20;13.95;;;11.50;56.80;;;;;;5012584;28;20041;-79
2021/03/24 10:33:39;;;;;;;18.35;12.38;;;11.50;57.70;;;;;;5019629;28;20038;-79
2021/03/24 10:36:26;;;;;;;21.33;13.88;;;11.60;57.30;;;;;;5012642;28;20029;-79
2021/03/24 10:39:04;;;;;;;19.27;13.38;;;11.50;57.50;;;;;;5012580;28;20037;-79
2021/03/24 10:42:03;;;;;;;20.23;14.43;;;11.60;58.30;;;;;;5011679;28;20041;-79
2021/03/24 10:44:48;;;;;;;19.02;13.10;;;11.70;57.70;;;;;;5016550;28;20037;-79
2021/03/24 10:47:29;;;;;;;23.27;13.15;;;11.40;57.40;;;;;;5012409;28;20037;-79
2021/03/24 10:50:10;;;;;;;20.33;13.82;;;11.40;58.20;;;;;;5012449;28;20371;-80
2021/03/24 10:52:42;;;;;;;21.45;13.75;;;11.50;58.40;;;;;;5011749;28;20042;-79
2021/03/24 10:55:18;;;;;;;23.27;14.18;;;11.70;58.30;;;;;;5012366;28;20053;-79
2021/03/24 10:58:06;;;;;;;23.38;14.27;;;11.80;58.40;;;;;;5012119;28;20480;-79
2021/03/24 11:00:39;;;;;;;21.10;14.85;;;12.00;57.60;;;;;;5011998;28;20034;-79
2021/03/24 11:03:20;;;;;;;20.42;13.55;;;11.80;57.90;;;;;;5031713;28;20030;-80
2021/03/24 11:06:12;;;;;;;19.50;13.70;;;12.30;57.70;;;;;;5033910;28;20490;-81
2021/03/24 11:08:44;;;;;;;20.70;14.45;;;12.10;57.70;;;;;;5012043;28;20480;-80
2021/03/24 11:11:45;;;;;;;17.80;12.73;;;12.10;57.80;;;;;;5012243;28;20026;-79
2021/03/24 11:14:17;;;;;;;18.73;12.35;;;12.20;57.40;;;;;;5012108;28;20041;-80
2021/03/24 11:16:56;;;;;;;18.60;12.82;;;12.70;56.50;;;;;;5011714;28;20464;-79
2021/03/24 11:19:39;;;;;;;19.70;13.25;;;12.90;56.30;;;;;;5011834;28;20041;-79
2021/03/24 11:22:11;;;;;;;20.20;13.32;;;12.80;55.80;;;;;;5027307;28;20468;-80
2021/03/24 11:24:50;;;;;;;15.98;12.20;;;12.40;55.70;;;;;;5010762;28;20046;-80
2021/03/24 11:27:29;;;;;;;20.38;12.35;;;12.10;57.10;;;;;;5012251;28;20046;-80
2021/03/24 11:30:07;;;;;;;20.10;11.88;;;12.40;56.40;;;;;;5027332;28;20033;-81
2021/03/24 11:32:49;;;;;;;19.02;12.18;;;12.60;55.20;;;;;;5011637;28;20045;-79
2021/03/24 11:35:29;;;;;;;19.40;13.13;;;12.40;56.20;;;;;;5012013;28;20439;-78
2021/03/24 11:38:08;;;;;;;19.67;12.88;;;12.40;55.70;;;;;;5011817;28;20383;-78
2021/03/24 11:40:45;;;;;;;20.30;12.27;;;12.50;55.50;;;;;;5011585;28;20522;-80
2021/03/24 11:43:24;;;;;;;20.00;12.32;;;12.80;56.00;;;;;;5011712;28;20352;-79
2021/03/24 11:46:18;;;;;;;16.92;12.52;;;12.40;56.50;;;;;;5011954;28;20455;-79
2021/03/24 11:49:08;;;;;;;18.80;12.40;;;12.50;55.50;;;;;;5011557;28;20045;-80
2021/03/24 11:52:12;;;;;;;44.45;27.80;;;12.50;55.50;;;;;;5011333;28;20034;-79
2021/03/24 11:55:02;;;;;;;22.98;13.95;;;12.40;55.50;;;;;;5011233;28;20092;-78
2021/03/24 11:57:44;;;;;;;21.90;13.18;;;12.40;56.90;;;;;;5014726;28;20045;-79
2021/03/24 12:00:35;;;;;;;17.77;12.32;;;12.50;56.00;;;;;;5015271;28;20041;-79
2021/03/24 12:03:20;;;;;;;;;;;12.50;56.20;;;;;;5015493;28;20053;-79
2021/03/24 12:06:01;;;;;;;25.25;14.25;;;12.70;56.50;;;;;;5015206;28;19909;-80
2021/03/24 12:08:39;;;;;;;19.17;14.48;;;13.10;55.80;;;;;;5014500;28;20037;-79
2021/03/24 12:11:19;;;;;;;20.83;14.13;;;13.30;55.50;;;;;;5014981;28;20467;-79
2021/03/24 12:13:46;;;;;;;19.85;13.43;;;13.40;55.30;;;;;;5014170;28;20034;-79
2021/03/24 12:16:15;;;;;;;20.55;14.02;;;13.30;55.20;;;;;;5014347;28;20030;-79
2021/03/24 12:18:53;;;;;;;21.90;14.63;;;13.40;56.00;;;;;;5014376;28;20042;-79
2021/03/24 12:21:28;;;;;;;22.27;14.50;;;13.50;55.10;;;;;;5014677;28;20034;-79
2021/03/24 12:23:59;;;;;;;20.05;15.10;;;13.70;55.00;;;;;;5014710;28;20026;-80
2021/03/24 12:26:25;;;;;;;;;;;13.50;54.30;;;;;;5014659;28;20061;-80
2021/03/24 12:28:55;;;;;;;22.02;13.10;;;13.50;55.00;;;;;;5014983;28;19909;-80
2021/03/24 12:31:23;;;;;;;19.80;13.07;;;13.70;54.60;;;;;;5014730;28;20391;-78
2021/03/24 12:33:59;;;;;;;19.77;13.60;;;13.40;54.20;;;;;;5014447;28;20464;-80
2021/03/24 12:36:29;;;;;;;44.40;28.90;;;13.40;54.50;;;;;;5014360;28;20042;-79
2021/03/24 12:39:07;;;;;;;27.58;19.15;;;13.40;54.20;;;;;;5014298;28;20490;-79
2021/03/24 12:41:38;;;;;;;21.50;14.50;;;13.70;54.80;;;;;;5029572;28;20034;-80
2021/03/24 12:44:13;;;;;;;;;;;13.40;54.00;;;;;;5014977;28;20464;-79
2021/03/24 12:47:23;;;;;;;19.65;13.10;;;13.20;54.40;;;;;;5013988;28;19914;-79
2021/03/24 12:50:16;;;;;;;17.42;12.73;;;13.20;54.80;;;;;;5014726;28;20046;-79
2021/03/24 12:53:07;;;;;;;19.55;11.55;;;13.50;54.40;;;;;;5013972;28;20030;-79
2021/03/24 12:55:35;;;;;;;17.92;12.10;;;13.80;54.10;;;;;;5014045;28;20400;-80
2021/03/24 12:58:21;;;;;;;19.42;12.63;;;13.80;54.00;;;;;;5014163;28;20467;-80
2021/03/24 13:01:21;;;;;;;19.65;11.57;;;13.90;54.40;;;;;;5013270;28;20037;-81
2021/03/24 13:04:24;;;;;;;19.27;13.32;;;13.90;53.40;;;;;;5013771;28;20041;-80
2021/03/24 13:07:08;;;;;;;16.63;11.77;;;13.80;53.40;;;;;;5012639;28;20049;-81
2021/03/24 13:09:49;;;;;;;19.35;11.65;;;13.60;53.90;;;;;;5013687;28;20042;-81
2021/03/24 13:12:52;;;;;;;20.95;12.10;;;13.70;53.20;;;;;;5013871;28;20384;-80
2021/03/24 13:15:23;;;;;;;17.17;11.38;;;13.80;54.20;;;;;;5007282;28;20049;-81
2021/03/24 13:17:56;;;;;;;20.90;14.27;;;14.30;53.40;;;;;;5013830;28;20050;-79
2021/03/24 13:20:57;;;;;;;22.85;13.25;;;14.50;51.50;;;;;;5013797;28;20045;-79
2021/03/24 13:23:35;;;;;;;18.58;13.00;;;14.60;52.60;;;;;;5006109;28;20387;-79
2021/03/24 13:26:23;;;;;;;19.27;13.38;;;14.60;51.40;;;;;;5013758;28;20034;-79